Time;durP1;ratioP1;P1;durP2;ratioP2;P2;SDS_P1;SDS_P2;PMS_P1;PMS_P2;Temp;Humidity;BMP_temperature;BMP_pressure;BME280_temperature;BME280_humidity;BME280_pressure;Samples;Min_cycle;Max_cycle;Signal;HPM_P1;HPM_P2
2022/07/04 00:00:20;;;;;;;1.03;1.00;;;22.00;94.80;;;;;;4199989;28;20214;-77
2022/07/04 00:02:22;;;;;;;6.50;1.30;;;21.90;92.30;;;;;;4203185;28;20202;-77
2022/07/04 00:04:24;;;;;;;1.43;1.30;;;21.80;95.20;;;;;;4199028;28;20268;-77
2022/07/04 00:06:27;;;;;;;2.47;1.20;;;21.80;93.90;;;;;;4214850;28;20243;-77
2022/07/04 00:08:29;;;;;;;1.63;1.00;;;21.80;94.30;;;;;;4196326;28;20700;-76
2022/07/04 00:10:31;;;;;;;1.97;1.03;;;21.70;94.80;;;;;;4215656;28;20208;-76
2022/07/04 00:12:33;;;;;;;3.60;1.20;;;21.60;98.00;;;;;;4211354;28;20196;-77
2022/07/04 00:14:35;;;;;;;1.50;1.10;;;21.60;97.50;;;;;;4195627;28;20759;-77
2022/07/04 00:16:37;;;;;;;1.63;1.30;;;21.50;97.60;;;;;;4218571;28;20209;-76
2022/07/04 00:18:42;;;;;;;1.93;1.20;;;21.40;95.70;;;;;;4213488;28;20212;-77
2022/07/04 00:20:44;;;;;;;1.30;1.20;;;21.40;97.40;;;;;;4214179;28;20205;-77
2022/07/04 00:22:47;;;;;;;2.67;1.20;;;21.30;96.30;;;;;;4209909;28;20223;-77
2022/07/04 00:24:49;;;;;;;1.60;1.20;;;21.30;97.10;;;;;;4197237;28;20256;-77
2022/07/04 00:26:51;;;;;;;2.07;1.00;;;21.20;98.40;;;;;;4202072;28;20719;-77
2022/07/04 00:28:53;;;;;;;1.60;1.20;;;21.20;97.90;;;;;;4195666;28;20253;-77
2022/07/04 00:30:55;;;;;;;3.13;1.20;;;21.10;99.00;;;;;;4208317;28;20554;-77
2022/07/04 00:32:57;;;;;;;2.63;1.50;;;21.10;98.80;;;;;;4214553;28;20304;-77
2022/07/04 00:34:59;;;;;;;1.50;1.40;;;21.00;99.90;;;;;;4211359;28;20544;-77
2022/07/04 00:37:01;;;;;;;1.93;1.50;;;20.90;99.90;;;;;;4203802;28;20267;-77
2022/07/04 00:39:04;;;;;;;2.07;1.30;;;20.80;99.90;;;;;;4211528;28;20230;-77
2022/07/04 00:41:06;;;;;;;3.20;1.60;;;20.80;99.90;;;;;;4207274;28;20218;-78
2022/07/04 00:43:08;;;;;;;1.73;1.50;;;20.80;99.90;;;;;;4210947;28;20209;-77
2022/07/04 00:45:11;;;;;;;2.63;1.70;;;20.70;99.90;;;;;;4210421;28;20208;-77
2022/07/04 00:47:13;;;;;;;5.30;2.27;;;20.70;99.90;;;;;;4207279;28;20219;-77
2022/07/04 00:49:17;;;;;;;5.03;2.70;;;20.60;99.90;;;;;;4206990;28;20709;-77
2022/07/04 00:51:20;;;;;;;4.50;2.93;;;20.50;99.90;;;;;;4205526;28;20236;-77
2022/07/04 00:53:24;;;;;;;6.43;3.87;;;20.50;99.90;;;;;;4201284;28;20247;-77
2022/07/04 00:55:27;;;;;;;5.83;4.13;;;20.30;99.90;;;;;;4209610;28;20221;-77
2022/07/04 00:57:29;;;;;;;9.73;3.93;;;20.30;99.90;;;;;;4209540;28;20219;-77
2022/07/04 00:59:34;;;;;;;7.67;4.43;;;20.20;99.90;;;;;;4211438;28;20624;-77
2022/07/04 01:01:37;;;;;;;7.23;4.00;;;20.20;99.90;;;;;;4205629;28;20214;-77
2022/07/04 01:03:39;;;;;;;5.00;4.03;;;20.20;99.90;;;;;;4203013;28;20199;-77
2022/07/04 01:05:41;;;;;;;5.93;3.77;;;20.10;99.90;;;;;;4205997;28;20212;-77
2022/07/04 01:07:44;;;;;;;8.27;3.80;;;20.00;99.90;;;;;;4206978;28;20227;-78
2022/07/04 01:09:47;;;;;;;6.00;3.70;;;19.90;99.90;;;;;;4190820;28;20237;-78
2022/07/04 01:11:51;;;;;;;5.73;3.63;;;19.90;99.90;;;;;;4204177;28;20716;-78
2022/07/04 01:13:54;;;;;;;4.80;3.50;;;19.80;99.90;;;;;;4200924;28;20209;-78
2022/07/04 01:15:56;;;;;;;4.80;3.13;;;19.80;99.90;;;;;;4207800;28;20420;-78
2022/07/04 01:17:58;;;;;;;5.07;2.93;;;19.80;99.90;;;;;;4207228;28;20311;-78
2022/07/04 01:20:00;;;;;;;5.23;3.00;;;19.70;99.90;;;;;;4209102;28;20226;-78
2022/07/04 01:22:08;;;;;;;5.17;3.00;;;19.70;99.90;;;;;;4206628;28;20580;-78
2022/07/04 01:24:12;;;;;;;3.97;3.13;;;19.60;99.90;;;;;;4210352;28;20522;-78
2022/07/04 01:26:14;;;;;;;3.93;2.70;;;19.50;99.90;;;;;;4208556;28;20201;-78
2022/07/04 01:28:16;;;;;;;3.90;2.73;;;19.50;99.90;;;;;;4209771;28;20200;-78
2022/07/04 01:30:18;;;;;;;4.50;2.90;;;19.50;99.90;;;;;;4206741;28;20259;-78
2022/07/04 01:32:21;;;;;;;3.13;2.60;;;19.40;99.90;;;;;;4209858;28;20243;-77
2022/07/04 01:34:23;;;;;;;5.87;2.70;;;19.40;99.90;;;;;;4204349;28;20307;-77
2022/07/04 01:36:26;;;;;;;5.33;2.73;;;19.30;99.90;;;;;;4210724;28;20217;-78
2022/07/04 01:38:29;;;;;;;2.93;2.60;;;19.30;99.90;;;;;;4210609;28;20319;-78
2022/07/04 01:40:31;;;;;;;4.33;2.57;;;19.30;99.90;;;;;;4209008;28;20397;-78
2022/07/04 01:42:33;;;;;;;4.47;2.37;;;19.20;99.90;;;;;;4202126;28;20524;-77
2022/07/04 01:44:35;;;;;;;5.67;2.73;;;19.20;99.90;;;;;;4210826;28;20208;-78
2022/07/04 01:46:37;;;;;;;4.50;2.70;;;19.10;99.90;;;;;;4205616;28;20297;-78
2022/07/04 01:48:39;;;;;;;2.40;2.20;;;19.10;99.90;;;;;;4208087;28;20549;-77
2022/07/04 01:50:41;;;;;;;2.83;2.30;;;19.10;99.90;;;;;;4206204;28;20219;-78
2022/07/04 01:52:43;;;;;;;3.83;2.10;;;19.00;99.90;;;;;;4209641;28;20212;-78
2022/07/04 01:54:47;;;;;;;3.30;2.27;;;19.00;99.90;;;;;;4206276;28;20212;-78
2022/07/04 01:56:49;;;;;;;2.87;2.33;;;19.00;99.90;;;;;;4202827;28;20211;-77
2022/07/04 01:58:50;;;;;;;3.90;2.10;;;18.90;99.90;;;;;;4208354;28;20239;-77
2022/07/04 02:03:12;;;;;;;3.40;2.27;;;18.80;99.90;;;;;;4201595;28;20621;-78
2022/07/04 02:05:14;;;;;;;3.37;2.37;;;18.80;99.90;;;;;;4207733;28;20208;-78
2022/07/04 02:07:17;;;;;;;3.83;2.30;;;18.70;99.90;;;;;;4206285;28;20209;-77
2022/07/04 02:09:19;;;;;;;2.83;2.23;;;18.70;99.90;;;;;;4208730;28;20233;-78
2022/07/04 02:11:22;;;;;;;2.67;2.30;;;18.60;99.90;;;;;;4202631;28;20206;-78
2022/07/04 02:13:23;;;;;;;5.00;2.37;;;18.60;99.90;;;;;;4209041;28;20663;-77
2022/07/04 02:15:25;;;;;;;3.63;2.20;;;18.60;99.90;;;;;;4199883;28;20213;-77
2022/07/04 02:17:27;;;;;;;3.33;2.17;;;18.60;99.90;;;;;;4208760;28;20203;-78
2022/07/04 02:19:29;;;;;;;5.23;2.63;;;18.50;99.90;;;;;;4204826;28;20335;-77
2022/07/04 02:21:31;;;;;;;5.50;2.43;;;18.50;99.90;;;;;;4208121;28;20271;-78
2022/07/04 02:23:33;;;;;;;4.30;2.50;;;18.50;99.90;;;;;;4200702;28;20233;-78
2022/07/04 02:25:35;;;;;;;5.30;2.47;;;18.40;99.90;;;;;;4203170;28;20204;-77
2022/07/04 02:27:38;;;;;;;2.63;2.40;;;18.40;99.90;;;;;;4200929;28;20244;-78
2022/07/04 02:29:41;;;;;;;4.87;2.73;;;18.40;99.90;;;;;;4206145;28;20235;-77
2022/07/04 02:31:43;;;;;;;3.10;2.27;;;18.30;99.90;;;;;;4196288;28;20248;-78
2022/07/04 02:33:45;;;;;;;3.50;2.57;;;18.30;99.90;;;;;;4196230;28;20213;-78
2022/07/04 02:35:47;;;;;;;4.10;2.60;;;18.30;99.90;;;;;;4206709;28;20308;-78
2022/07/04 04:05:36;;;;;;;1.90;1.80;;;17.50;99.90;;;;;;4213508;28;20649;-77
2022/07/04 04:07:39;;;;;;;2.40;2.20;;;17.50;99.90;;;;;;4213672;28;20197;-78
2022/07/04 04:09:42;;;;;;;2.13;1.90;;;17.40;99.90;;;;;;4211655;28;20233;-78
2022/07/04 04:11:44;;;;;;;2.43;2.20;;;17.40;99.90;;;;;;4201013;28;20232;-78
2022/07/04 04:13:46;;;;;;;3.60;2.13;;;17.40;99.90;;;;;;4200590;28;20631;-78
2022/07/04 04:15:47;;;;;;;3.30;1.90;;;17.40;99.90;;;;;;4201361;28;20712;-78
2022/07/04 04:17:49;;;;;;;3.67;2.20;;;17.40;99.90;;;;;;4214902;28;20201;-78
2022/07/04 04:19:51;;;;;;;2.27;1.90;;;17.30;99.90;;;;;;4212044;28;20220;-78
2022/07/04 04:21:53;;;;;;;2.83;1.97;;;17.30;99.90;;;;;;4214094;28;20213;-77
2022/07/04 04:23:57;;;;;;;3.73;2.17;;;17.30;99.90;;;;;;4211379;28;20201;-79
2022/07/04 04:25:59;;;;;;;3.80;2.20;;;17.30;99.90;;;;;;4212421;28;20643;-79
2022/07/04 04:28:00;;;;;;;3.53;2.13;;;17.30;99.90;;;;;;4191354;28;20263;-79
2022/07/04 04:30:03;;;;;;;2.77;2.27;;;17.30;99.90;;;;;;4213074;28;20217;-79
2022/07/04 04:32:05;;;;;;;3.00;2.00;;;17.30;99.90;;;;;;4196585;28;20202;-79
2022/07/04 04:34:07;;;;;;;3.73;2.20;;;17.30;99.90;;;;;;4215783;28;20205;-79
2022/07/04 04:36:10;;;;;;;3.10;2.27;;;17.30;99.90;;;;;;4196982;28;20197;-79
2022/07/04 04:38:12;;;;;;;3.33;2.17;;;17.30;99.90;;;;;;4215917;28;20205;-79
2022/07/04 04:40:16;;;;;;;2.67;2.10;;;17.30;99.90;;;;;;4215592;28;20201;-79
2022/07/04 04:42:18;;;;;;;2.93;2.10;;;17.20;99.90;;;;;;4212965;28;20204;-79
2022/07/04 04:44:22;;;;;;;2.23;1.83;;;17.30;99.90;;;;;;4215308;28;20552;-79
2022/07/04 04:46:24;;;;;;;3.03;2.30;;;17.30;99.90;;;;;;4216497;28;20200;-79
2022/07/04 04:48:27;;;;;;;2.47;1.97;;;17.30;99.90;;;;;;4218994;28;20689;-79
2022/07/04 04:50:28;;;;;;;2.40;2.20;;;17.30;99.90;;;;;;4217960;28;20299;-79
2022/07/04 04:52:30;;;;;;;4.30;2.07;;;17.30;99.90;;;;;;4198110;28;20304;-77
2022/07/04 04:54:33;;;;;;;4.13;1.80;;;17.30;99.90;;;;;;4216308;28;20585;-79
2022/07/04 04:56:37;;;;;;;3.50;2.10;;;17.30;99.90;;;;;;4217739;28;20201;-79
2022/07/04 04:58:39;;;;;;;2.93;2.13;;;17.30;99.90;;;;;;4194623;28;20287;-77
2022/07/04 05:00:41;;;;;;;3.00;2.00;;;17.30;99.90;;;;;;4195978;28;20211;-77
2022/07/04 05:02:43;;;;;;;3.53;2.00;;;17.30;99.90;;;;;;4212148;28;20202;-77
2022/07/04 05:04:45;;;;;;;2.53;1.80;;;17.30;99.90;;;;;;4215801;28;20201;-78
2022/07/04 05:06:47;;;;;;;2.57;2.00;;;17.30;99.90;;;;;;4215220;28;20205;-78
2022/07/04 05:08:49;;;;;;;3.03;1.80;;;17.30;99.90;;;;;;4215975;28;20233;-79
2022/07/04 05:10:51;;;;;;;3.23;1.63;;;17.30;99.90;;;;;;4214392;28;20675;-78
2022/07/04 05:12:55;;;;;;;5.70;1.80;;;17.40;99.90;;;;;;4214510;28;20236;-78
2022/07/04 05:14:57;;;;;;;4.90;1.80;;;17.40;99.90;;;;;;4213585;28;20216;-78
2022/07/04 05:16:59;;;;;;;2.53;1.60;;;17.40;99.90;;;;;;4213038;28;20898;-77
2022/07/04 05:19:01;;;;;;;4.03;1.60;;;17.40;99.90;;;;;;4191887;28;20308;-79
2022/07/04 05:21:03;;;;;;;2.80;1.57;;;17.40;99.90;;;;;;4213601;28;20203;-79
2022/07/04 05:23:05;;;;;;;3.47;1.53;;;17.50;99.90;;;;;;4210104;28;20239;-81
2022/07/04 05:25:08;;;;;;;2.00;1.60;;;17.50;99.90;;;;;;4210518;28;20706;-79
2022/07/04 05:27:11;;;;;;;2.77;1.43;;;17.50;99.90;;;;;;4211660;28;20284;-79
2022/07/04 05:29:14;;;;;;;3.13;1.60;;;17.50;99.90;;;;;;4196632;28;20232;-80
2022/07/04 05:31:16;;;;;;;2.70;1.60;;;17.50;99.90;;;;;;4200708;28;20573;-78
2022/07/04 05:33:18;;;;;;;3.97;1.70;;;17.50;99.90;;;;;;4192739;28;20815;-79
2022/07/04 05:35:20;;;;;;;1.97;1.57;;;17.50;99.90;;;;;;4186549;28;20220;-78
2022/07/04 05:37:22;;;;;;;2.60;1.30;;;17.60;99.90;;;;;;4212608;28;20212;-78
2022/07/04 05:39:24;;;;;;;3.00;1.50;;;17.60;99.90;;;;;;4210655;28;20594;-78
2022/07/04 05:41:26;;;;;;;2.73;1.70;;;17.60;99.90;;;;;;4212510;28;20201;-81
2022/07/04 05:43:28;;;;;;;2.97;1.50;;;17.60;99.90;;;;;;4213317;28;20293;-78
2022/07/04 05:45:31;;;;;;;1.50;1.40;;;17.60;99.90;;;;;;4210188;28;20228;-78
2022/07/04 05:47:33;;;;;;;2.90;1.50;;;17.60;99.90;;;;;;4209699;28;21000;-78
2022/07/04 05:49:36;;;;;;;2.07;1.27;;;17.60;99.90;;;;;;4212014;28;20233;-78
2022/07/04 05:51:38;;;;;;;1.60;1.40;;;17.70;99.90;;;;;;4187750;28;20718;-78
2022/07/04 05:53:40;;;;;;;3.60;1.43;;;17.70;99.90;;;;;;4209796;28;20205;-78
2022/07/04 05:55:42;;;;;;;3.73;1.50;;;17.70;99.90;;;;;;4214591;28;20259;-78
2022/07/04 05:57:44;;;;;;;3.97;1.50;;;17.70;99.90;;;;;;4214581;28;20267;-78
2022/07/04 05:59:46;;;;;;;1.37;1.20;;;17.70;99.90;;;;;;4209006;28;20627;-78
2022/07/04 06:01:49;;;;;;;2.43;1.50;;;17.80;99.90;;;;;;4212078;28;20682;-78
2022/07/04 06:03:51;;;;;;;2.50;1.60;;;17.80;99.90;;;;;;4212958;28;20287;-78
2022/07/04 06:05:54;;;;;;;1.43;1.33;;;17.80;99.90;;;;;;4212474;28;20197;-78
2022/07/04 06:07:56;;;;;;;1.97;1.30;;;17.80;99.90;;;;;;4212182;28;20576;-78
2022/07/04 06:09:58;;;;;;;1.40;1.30;;;17.80;99.90;;;;;;4193958;28;20237;-78
2022/07/04 06:12:00;;;;;;;1.90;1.40;;;17.90;99.90;;;;;;4212278;28;20692;-78
2022/07/04 06:14:02;;;;;;;2.53;1.13;;;17.90;99.90;;;;;;4213125;28;20622;-78
2022/07/04 06:16:04;;;;;;;1.73;1.20;;;17.90;99.90;;;;;;4208604;28;20212;-78
2022/07/04 06:18:07;;;;;;;1.73;1.40;;;18.00;99.90;;;;;;4174679;28;20210;-78
2022/07/04 06:20:11;;;;;;;3.70;1.30;;;18.00;99.90;;;;;;4212658;28;20643;-78
2022/07/04 06:22:13;;;;;;;2.90;1.20;;;18.10;99.90;;;;;;4209263;28;20611;-78
2022/07/04 06:24:16;;;;;;;1.47;1.20;;;18.10;99.90;;;;;;4212900;28;20248;-78
2022/07/04 06:26:17;;;;;;;1.20;1.10;;;18.10;99.90;;;;;;4213194;28;20205;-78
2022/07/04 06:28:19;;;;;;;2.30;1.30;;;18.10;99.90;;;;;;4209462;28;20206;-78
2022/07/04 06:30:21;;;;;;;1.93;1.10;;;18.20;99.90;;;;;;4204469;28;20737;-78
2022/07/04 06:32:23;;;;;;;1.90;1.10;;;18.20;99.90;;;;;;4209710;28;20205;-78
2022/07/04 06:36:46;;;;;;;1.47;1.00;;;18.30;99.90;;;;;;4206179;28;20288;-78
2022/07/04 06:38:48;;;;;;;3.63;1.00;;;18.40;99.90;;;;;;4216097;28;20256;-78
2022/07/04 06:40:51;;;;;;;2.13;1.37;;;18.50;99.90;;;;;;4214937;28;20595;-78
2022/07/04 06:42:53;;;;;;;2.73;1.13;;;18.50;99.90;;;;;;4211599;28;20204;-78
2022/07/04 06:44:55;;;;;;;2.20;1.03;;;18.50;99.90;;;;;;4211943;28;20221;-78
2022/07/04 06:46:57;;;;;;;1.37;0.87;;;18.60;99.90;;;;;;4211082;28;20234;-78
2022/07/04 06:48:59;;;;;;;1.07;0.87;;;18.50;99.90;;;;;;4212490;28;20246;-78
2022/07/04 06:51:02;;;;;;;1.63;0.80;;;18.60;99.90;;;;;;4194737;28;20225;-78
2022/07/04 06:53:05;;;;;;;2.17;1.00;;;18.60;99.90;;;;;;4195268;28;20214;-78
2022/07/04 06:55:08;;;;;;;1.33;1.00;;;18.60;99.90;;;;;;4211339;28;20267;-78
2022/07/04 06:57:12;;;;;;;2.60;1.03;;;18.70;99.90;;;;;;4197309;28;20279;-78
2022/07/04 06:59:13;;;;;;;1.33;1.03;;;18.70;99.90;;;;;;4212457;28;20618;-78
2022/07/04 07:01:15;;;;;;;2.17;1.20;;;18.70;99.90;;;;;;4208783;28;20201;-78
2022/07/04 07:03:17;;;;;;;2.97;1.10;;;18.70;99.90;;;;;;4210761;28;20200;-78
2022/07/04 07:05:19;;;;;;;2.20;1.03;;;18.80;99.90;;;;;;4211551;28;20240;-78
2022/07/04 07:07:24;;;;;;;2.00;1.10;;;18.80;99.90;;;;;;4211910;28;20237;-78
2022/07/04 07:09:26;;;;;;;2.63;1.10;;;18.80;99.90;;;;;;4207762;28;20233;-78
2022/07/04 07:11:30;;;;;;;1.60;1.17;;;18.90;99.90;;;;;;4193977;28;20230;-78
2022/07/04 07:13:32;;;;;;;3.07;1.10;;;18.90;99.90;;;;;;4211421;28;20201;-78
2022/07/04 07:15:35;;;;;;;1.00;0.90;;;19.00;99.90;;;;;;4210115;28;20281;-78
2022/07/04 07:17:37;;;;;;;1.40;1.00;;;19.00;99.90;;;;;;4211521;28;20205;-78
2022/07/04 07:19:39;;;;;;;1.17;0.80;;;19.00;99.90;;;;;;4194305;28;20317;-78
2022/07/04 07:21:41;;;;;;;6.03;0.90;;;19.10;99.90;;;;;;4211387;28;20237;-78
2022/07/04 07:23:45;;;;;;;4.50;1.00;;;19.10;99.90;;;;;;4215436;28;20297;-78
2022/07/04 07:25:47;;;;;;;1.13;0.90;;;19.10;99.90;;;;;;4209056;28;20206;-78
2022/07/04 07:27:48;;;;;;;2.00;1.03;;;19.20;99.90;;;;;;4214199;28;20211;-78
2022/07/04 07:29:50;;;;;;;1.27;0.80;;;19.20;99.90;;;;;;4214273;28;20304;-78
2022/07/04 07:31:52;;;;;;;1.00;0.70;;;19.30;99.90;;;;;;4214620;28;20231;-78
2022/07/04 07:33:54;;;;;;;1.60;0.80;;;19.30;99.90;;;;;;4215631;28;20318;-78
2022/07/04 07:35:56;;;;;;;1.87;0.83;;;19.30;99.90;;;;;;4214976;28;20256;-78
2022/07/04 07:37:58;;;;;;;2.03;1.00;;;19.40;99.90;;;;;;4214185;28;20648;-78
2022/07/04 07:40:02;;;;;;;1.73;0.80;;;19.50;99.90;;;;;;4211462;28;20257;-78
2022/07/04 07:42:04;;;;;;;1.00;0.90;;;19.60;99.90;;;;;;4215123;28;20273;-78
2022/07/04 07:44:06;;;;;;;0.90;0.73;;;19.70;99.90;;;;;;4212807;28;20204;-78
2022/07/04 07:46:09;;;;;;;0.80;0.80;;;19.80;99.90;;;;;;4199105;28;20215;-78
2022/07/04 07:48:11;;;;;;;0.80;0.80;;;19.90;99.90;;;;;;4202254;28;20292;-78
2022/07/04 07:50:13;;;;;;;1.30;0.90;;;20.10;99.90;;;;;;4213416;28;20311;-78
2022/07/04 07:52:15;;;;;;;2.23;0.90;;;20.20;99.90;;;;;;4215161;28;20222;-78
2022/07/04 07:54:17;;;;;;;1.20;0.90;;;20.40;99.50;;;;;;4214552;28;20203;-78
2022/07/04 07:56:20;;;;;;;1.83;0.87;;;20.50;97.20;;;;;;4215533;28;20209;-78
2022/07/04 07:58:22;;;;;;;1.43;1.00;;;20.50;91.90;;;;;;4213044;28;20196;-78
2022/07/04 08:00:24;;;;;;;1.57;0.77;;;20.60;95.00;;;;;;4211588;28;20204;-78
2022/07/04 08:04:42;;;;;;;1.77;1.00;;;20.80;92.30;;;;;;4213054;28;20292;-78
2022/07/04 08:06:44;;;;;;;1.53;1.03;;;20.80;88.00;;;;;;4212069;28;20284;-78
2022/07/04 08:08:46;;;;;;;3.67;1.10;;;20.90;91.90;;;;;;4211664;28;20311;-78
2022/07/04 08:10:48;;;;;;;0.80;0.80;;;21.00;89.80;;;;;;4210587;28;20209;-78
2022/07/04 08:12:51;;;;;;;1.27;0.80;;;21.00;90.40;;;;;;4216197;28;20212;-78
2022/07/04 08:14:53;;;;;;;1.37;0.80;;;21.10;92.60;;;;;;4211519;28;20198;-78
2022/07/04 08:16:55;;;;;;;1.63;0.80;;;21.20;92.40;;;;;;4198895;28;20243;-79
2022/07/04 08:18:57;;;;;;;1.43;0.90;;;21.30;92.80;;;;;;4215764;28;20230;-78
2022/07/04 08:21:00;;;;;;;1.73;0.93;;;21.40;87.20;;;;;;4202571;28;20683;-78
2022/07/04 08:23:01;;;;;;;1.97;1.10;;;21.50;90.70;;;;;;4219651;28;20288;-78
2022/07/04 08:25:04;;;;;;;1.63;1.00;;;21.40;81.30;;;;;;4217631;28;20240;-78
2022/07/04 08:27:06;;;;;;;1.33;1.00;;;21.60;86.20;;;;;;4213328;28;20216;-78
2022/07/04 08:29:21;;;;;;;1.17;0.90;;;21.70;90.00;;;;;;4196617;28;20222;-78
2022/07/04 08:31:24;;;;;;;3.17;0.90;;;21.80;81.80;;;;;;4212112;28;20216;-78
2022/07/04 08:33:26;;;;;;;1.57;0.90;;;21.90;81.90;;;;;;4195967;28;20232;-78
2022/07/04 08:35:28;;;;;;;1.40;0.80;;;22.00;83.80;;;;;;4205493;28;20232;-78
2022/07/04 08:37:30;;;;;;;1.00;0.80;;;22.10;83.10;;;;;;4213879;28;20246;-78
2022/07/04 08:39:32;;;;;;;2.00;1.00;;;22.10;79.30;;;;;;4212846;28;20223;-78
2022/07/04 08:41:39;;;;;;;1.33;1.07;;;22.10;77.50;;;;;;4197007;28;20215;-78
2022/07/04 08:43:42;;;;;;;3.00;1.00;;;22.30;81.90;;;;;;4193525;28;20720;-78
2022/07/04 08:45:49;;;;;;;2.17;1.00;;;22.30;80.80;;;;;;4205855;28;20290;-78
2022/07/04 08:47:53;;;;;;;0.80;0.80;;;22.40;78.40;;;;;;4213676;28;20692;-78
2022/07/04 08:50:04;;;;;;;1.97;1.00;;;22.50;81.80;;;;;;4195232;28;20311;-78
2022/07/04 08:52:10;;;;;;;2.90;0.90;;;22.70;80.30;;;;;;4212031;28;20309;-78
2022/07/04 08:58:51;;;;;;;1.00;0.90;;;22.90;71.60;;;;;;4213929;28;20216;-79
2022/07/04 09:00:56;;;;;;;1.80;0.80;;;23.00;70.30;;;;;;4213274;28;20614;-79
2022/07/04 09:02:59;;;;;;;1.47;0.60;;;23.10;67.50;;;;;;4211421;28;20295;-79
2022/07/04 09:05:01;;;;;;;1.60;0.80;;;23.10;60.50;;;;;;4209821;28;20212;-78
2022/07/04 09:07:04;;;;;;;1.87;0.70;;;23.10;60.30;;;;;;4211521;28;20215;-78
2022/07/04 09:09:08;;;;;;;1.00;0.67;;;23.10;59.00;;;;;;4213602;28;20251;-79
2022/07/04 09:11:10;;;;;;;2.43;0.87;;;23.20;61.00;;;;;;4212496;28;20215;-79
2022/07/04 09:13:14;;;;;;;3.17;1.20;;;23.20;56.10;;;;;;4195226;28;20255;-79
2022/07/04 09:15:17;;;;;;;5.27;1.93;;;23.30;56.30;;;;;;4213526;28;20213;-79
2022/07/04 09:17:22;;;;;;;8.13;2.80;;;23.20;53.90;;;;;;4200550;28;20198;-78
2022/07/04 09:19:25;;;;;;;5.73;2.20;;;23.40;56.90;;;;;;4213425;28;20251;-78
2022/07/04 09:21:45;;;;;;;3.27;1.47;;;23.50;54.70;;;;;;4192036;28;20210;-78
2022/07/04 09:23:47;;;;;;;3.57;1.10;;;23.60;56.10;;;;;;4212843;28;20201;-79
2022/07/04 09:25:50;;;;;;;1.90;1.00;;;23.60;53.00;;;;;;4213535;28;20209;-78
2022/07/04 09:27:53;;;;;;;2.37;1.33;;;23.70;53.00;;;;;;4210005;28;20766;-78
2022/07/04 09:29:55;;;;;;;3.50;1.50;;;23.70;50.90;;;;;;4208950;28;20218;-79
2022/07/04 09:31:57;;;;;;;2.27;1.20;;;23.70;51.50;;;;;;4213651;28;20213;-77
2022/07/04 09:34:03;;;;;;;2.37;1.20;;;23.70;50.80;;;;;;4213868;28;20209;-78
2022/07/04 09:36:12;;;;;;;1.83;0.80;;;23.60;51.10;;;;;;4211946;28;20732;-78
2022/07/04 09:38:23;;;;;;;2.37;1.00;;;23.60;51.60;;;;;;4212323;28;20232;-78
2022/07/04 09:40:26;;;;;;;2.00;0.77;;;23.60;50.00;;;;;;4209028;28;20201;-78
2022/07/04 09:42:36;;;;;;;2.67;0.80;;;23.40;49.10;;;;;;4215773;28;20253;-78
2022/07/04 09:44:45;;;;;;;1.70;0.73;;;23.30;49.30;;;;;;4194462;28;20702;-77
2022/07/04 09:46:47;;;;;;;1.10;0.80;;;23.20;47.80;;;;;;4193715;28;20656;-78
2022/07/04 09:48:50;;;;;;;1.50;0.70;;;23.20;49.70;;;;;;4197537;28;20272;-78
2022/07/04 09:50:54;;;;;;;1.93;0.60;;;23.10;48.50;;;;;;4207510;28;20568;-77
2022/07/04 09:52:57;;;;;;;1.00;0.60;;;23.00;49.70;;;;;;4206269;28;20228;-78
2022/07/04 09:55:02;;;;;;;1.50;0.60;;;23.00;50.80;;;;;;4213029;28;20218;-78
2022/07/04 09:57:05;;;;;;;0.93;0.60;;;23.00;51.70;;;;;;4206098;28;20212;-79
2022/07/04 09:59:07;;;;;;;1.03;0.67;;;22.90;49.50;;;;;;4213206;28;20242;-77
2022/07/04 10:01:09;;;;;;;2.97;0.63;;;22.90;50.30;;;;;;4203426;28;20580;-79
2022/07/04 10:03:19;;;;;;;1.40;0.60;;;22.90;49.30;;;;;;4209249;28;20642;-78
2022/07/04 10:05:24;;;;;;;1.47;0.60;;;22.70;47.90;;;;;;4207913;28;20245;-77
2022/07/04 10:07:36;;;;;;;1.23;0.60;;;22.80;49.60;;;;;;4213528;28;20239;-78
2022/07/04 10:09:38;;;;;;;1.47;0.80;;;22.80;50.30;;;;;;4195596;28;20589;-78
2022/07/04 10:11:43;;;;;;;0.83;0.70;;;22.90;50.60;;;;;;4214990;28;20224;-78
2022/07/04 10:13:45;;;;;;;2.93;0.87;;;23.00;50.30;;;;;;4204514;28;20581;-77
2022/07/04 10:15:47;;;;;;;1.00;0.70;;;23.00;50.90;;;;;;4213408;28;20654;-77
2022/07/04 10:17:50;;;;;;;1.73;0.80;;;23.10;50.80;;;;;;4199855;28;20306;-78
2022/07/04 10:19:56;;;;;;;1.00;0.60;;;23.10;49.90;;;;;;4213321;28;20607;-78
2022/07/04 10:21:58;;;;;;;2.07;0.73;;;23.10;50.30;;;;;;4213630;28;20234;-78
2022/07/04 10:24:03;;;;;;;1.00;0.57;;;23.20;51.30;;;;;;4212536;28;20564;-78
2022/07/04 10:26:07;;;;;;;0.93;0.70;;;23.20;51.70;;;;;;4210948;28;20664;-78
2022/07/04 10:28:09;;;;;;;2.00;0.87;;;23.10;50.60;;;;;;4210032;28;20243;-78
2022/07/04 10:30:15;;;;;;;2.40;1.00;;;23.10;52.50;;;;;;4212252;28;20214;-78
2022/07/04 10:32:17;;;;;;;2.57;0.70;;;23.10;52.60;;;;;;4209862;28;20224;-78
2022/07/04 10:34:19;;;;;;;1.40;0.70;;;23.20;51.80;;;;;;4210369;28;20203;-79
2022/07/04 10:36:22;;;;;;;1.10;0.80;;;23.20;53.20;;;;;;4213206;28;20210;-78
2022/07/04 10:38:25;;;;;;;3.17;1.00;;;23.30;53.50;;;;;;4215583;28;20236;-78
2022/07/04 10:40:44;;;;;;;1.43;0.70;;;23.50;54.00;;;;;;4214991;28;20210;-79
2022/07/04 10:42:49;;;;;;;1.40;0.90;;;23.50;50.90;;;;;;4205977;28;20686;-79
2022/07/04 10:44:51;;;;;;;1.40;0.90;;;23.60;51.10;;;;;;4209652;28;20208;-79
2022/07/04 10:46:56;;;;;;;1.40;0.93;;;23.80;51.40;;;;;;4225442;28;20221;-78
2022/07/04 10:49:00;;;;;;;2.40;0.80;;;23.90;49.50;;;;;;4202038;28;20229;-79
2022/07/04 10:51:04;;;;;;;1.27;0.80;;;23.90;50.70;;;;;;4214850;28;20211;-79
2022/07/04 10:53:12;;;;;;;1.33;0.90;;;24.00;49.40;;;;;;4215318;28;20221;-79
2022/07/04 10:55:15;;;;;;;3.03;0.87;;;24.00;49.70;;;;;;4204630;28;20258;-79
2022/07/04 10:57:19;;;;;;;1.00;0.90;;;24.20;49.10;;;;;;4211953;28;20250;-79
2022/07/04 10:59:25;;;;;;;1.00;0.70;;;24.30;48.50;;;;;;4214810;28;20274;-79
2022/07/04 11:01:27;;;;;;;2.33;0.73;;;24.50;49.80;;;;;;4211806;28;20205;-78
2022/07/04 11:03:29;;;;;;;1.20;0.80;;;24.50;49.00;;;;;;4215208;28;20223;-79
2022/07/04 11:05:32;;;;;;;1.90;0.90;;;24.60;49.00;;;;;;4213521;28;20345;-78
2022/07/04 11:07:57;;;;;;;2.67;0.93;;;24.80;50.20;;;;;;4215946;28;20216;-79
2022/07/04 11:10:25;;;;;;;1.47;0.90;;;24.90;49.80;;;;;;4215158;28;20229;-79
2022/07/04 11:14:35;;;;;;;3.37;1.10;;;25.30;47.70;;;;;;4163999;28;20281;-77
2022/07/04 11:16:53;;;;;;;2.63;1.30;;;25.40;46.30;;;;;;4171653;28;20214;-77
2022/07/04 11:18:54;;;;;;;1.70;1.17;;;25.30;45.70;;;;;;4168891;28;20652;-76
2022/07/04 11:20:57;;;;;;;4.20;1.37;;;25.40;45.90;;;;;;4167712;28;20238;-76
2022/07/04 11:23:05;;;;;;;1.63;1.13;;;25.60;47.00;;;;;;4173913;28;20559;-76
2022/07/04 11:25:07;;;;;;;2.80;1.17;;;25.60;46.00;;;;;;4171217;28;20209;-77
2022/07/04 11:27:10;;;;;;;2.37;1.30;;;25.80;44.50;;;;;;4172162;28;20241;-76
2022/07/04 11:29:13;;;;;;;1.33;1.00;;;25.80;43.50;;;;;;4173101;28;20206;-78
2022/07/04 11:31:17;;;;;;;1.70;1.00;;;26.00;44.90;;;;;;4176072;28;20699;-76
2022/07/04 11:33:21;;;;;;;1.10;1.00;;;26.10;44.60;;;;;;4153698;28;20234;-76
2022/07/04 11:35:23;;;;;;;1.13;1.00;;;26.20;44.60;;;;;;4173203;28;20238;-76
2022/07/04 11:37:25;;;;;;;2.03;1.10;;;26.40;43.60;;;;;;4176148;28;20215;-76
2022/07/04 11:39:27;;;;;;;1.60;1.17;;;26.50;43.60;;;;;;4161550;28;20227;-76
2022/07/04 11:46:12;;;;;;;1.80;1.00;;;26.60;43.20;;;;;;4171095;28;20679;-76
2022/07/04 11:48:22;;;;;;;2.40;1.20;;;26.70;43.20;;;;;;4170923;28;20676;-76
2022/07/04 11:50:24;;;;;;;1.53;1.30;;;26.90;42.90;;;;;;4168778;28;20201;-76
2022/07/04 11:52:27;;;;;;;1.80;1.10;;;27.00;42.50;;;;;;4152423;28;20859;-77
2022/07/04 11:54:30;;;;;;;2.00;1.10;;;27.00;41.00;;;;;;4175195;28;20289;-76
2022/07/04 11:56:32;;;;;;;1.80;1.10;;;27.10;42.00;;;;;;4175935;28;20235;-76
2022/07/04 11:58:40;;;;;;;1.00;0.90;;;27.10;41.40;;;;;;4154946;28;20686;-76
2022/07/04 12:00:42;;;;;;;2.20;1.20;;;27.20;41.40;;;;;;4167355;28;20671;-76
2022/07/04 12:02:44;;;;;;;1.40;1.13;;;27.20;42.10;;;;;;4156433;28;20223;-76
2022/07/04 12:04:48;;;;;;;2.30;1.13;;;27.10;41.00;;;;;;4177524;28;20199;-76
2022/07/04 12:06:50;;;;;;;2.17;1.10;;;27.10;42.30;;;;;;4165937;28;20215;-76
2022/07/04 12:08:52;;;;;;;1.43;1.03;;;27.20;41.80;;;;;;4150382;28;20203;-76
2022/07/04 12:10:54;;;;;;;3.47;0.97;;;27.30;42.00;;;;;;4154302;28;20226;-76
2022/07/04 12:12:59;;;;;;;2.87;1.07;;;27.50;41.50;;;;;;4174452;28;20710;-76
2022/07/04 12:15:03;;;;;;;3.00;1.23;;;27.70;40.90;;;;;;4154657;28;20719;-76
2022/07/04 12:17:13;;;;;;;2.27;1.17;;;27.80;38.70;;;;;;4173579;28;20218;-76
2022/07/04 12:19:15;;;;;;;1.43;1.30;;;27.90;39.10;;;;;;4173065;28;20691;-77
2022/07/04 12:21:22;;;;;;;2.10;1.23;;;28.10;38.30;;;;;;4158279;28;20653;-77
2022/07/04 12:23:28;;;;;;;2.83;1.20;;;28.20;38.20;;;;;;4157755;28;20234;-76
2022/07/04 12:25:36;;;;;;;1.58;1.00;;;28.50;38.30;;;;;;4173130;28;20214;-76
2022/07/04 12:27:38;;;;;;;3.17;1.20;;;28.60;37.40;;;;;;4172095;28;20212;-76